sensor_id;sensor_type;location;lat;lon;timestamp;pressure;altitude;pressure_sealevel;temperature;humidity
11077;BME280;5591;42.626;23.380;2023-08-08T00:00:52;94003.63;;;17.18;100.00
11077;BME280;5591;42.626;23.380;2023-08-08T00:03:21;94002.72;;;17.24;100.00
11077;BME280;5591;42.626;23.380;2023-08-08T00:05:47;94002.94;;;17.23;100.00
11077;BME280;5591;42.626;23.380;2023-08-08T00:08:14;93998.25;;;17.13;100.00
11077;BME280;5591;42.626;23.380;2023-08-08T00:10:41;94007.09;;;17.19;100.00
11077;BME280;5591;42.626;23.380;2023-08-08T00:13:08;94002.94;;;17.34;100.00
11077;BME280;5591;42.626;23.380;2023-08-08T00:15:35;93960.25;;;16.85;100.00
11077;BME280;5591;42.626;23.380;2023-08-08T00:18:02;94016.91;;;17.18;100.00
11077;BME280;5591;42.626;23.380;2023-08-08T00:20:31;94019.25;;;17.03;100.00
11077;BME280;5591;42.626;23.380;2023-08-08T00:22:58;94024.66;;;16.85;100.00
11077;BME280;5591;42.626;23.380;2023-08-08T00:25:24;94023.03;;;16.84;100.00
11077;BME280;5591;42.626;23.380;2023-08-08T00:27:51;94029.84;;;17.03;100.00
11077;BME280;5591;42.626;23.380;2023-08-08T00:30:18;94022.66;;;17.27;100.00
11077;BME280;5591;42.626;23.380;2023-08-08T00:32:45;94032.72;;;17.36;100.00
11077;BME280;5591;42.626;23.380;2023-08-08T00:35:12;94036.97;;;17.26;100.00
11077;BME280;5591;42.626;23.380;2023-08-08T00:37:41;94039.28;;;17.22;100.00
11077;BME280;5591;42.626;23.380;2023-08-08T00:40:08;94003.09;;;16.82;100.00
11077;BME280;5591;42.626;23.380;2023-08-08T00:42:35;94048.06;;;17.00;100.00
11077;BME280;5591;42.626;23.380;2023-08-08T00:45:02;94080.13;;;17.21;100.00
11077;BME280;5591;42.626;23.380;2023-08-08T00:47:30;94055.66;;;16.96;100.00
11077;BME280;5591;42.626;23.380;2023-08-08T00:49:58;94045.97;;;17.25;100.00
11077;BME280;5591;42.626;23.380;2023-08-08T00:52:26;94053.84;;;16.97;100.00
11077;BME280;5591;42.626;23.380;2023-08-08T00:54:54;94058.78;;;17.05;100.00
11077;BME280;5591;42.626;23.380;2023-08-08T00:57:21;94058.00;;;16.93;100.00
11077;BME280;5591;42.626;23.380;2023-08-08T00:59:48;94057.28;;;17.09;100.00
11077;BME280;5591;42.626;23.380;2023-08-08T01:02:15;94047.72;;;16.96;100.00
11077;BME280;5591;42.626;23.380;2023-08-08T01:04:42;94049.56;;;16.96;100.00
11077;BME280;5591;42.626;23.380;2023-08-08T01:07:14;94046.69;;;17.09;100.00
11077;BME280;5591;42.626;23.380;2023-08-08T01:09:48;94052.56;;;16.88;100.00
11077;BME280;5591;42.626;23.380;2023-08-08T01:12:19;94059.69;;;16.87;100.00
11077;BME280;5591;42.626;23.380;2023-08-08T01:14:47;94058.75;;;16.82;100.00
11077;BME280;5591;42.626;23.380;2023-08-08T01:17:14;94066.03;;;16.75;100.00
11077;BME280;5591;42.626;23.380;2023-08-08T01:19:41;94064.75;;;17.12;100.00
11077;BME280;5591;42.626;23.380;2023-08-08T01:22:14;94059.69;;;16.87;100.00
11077;BME280;5591;42.626;23.380;2023-08-08T01:24:49;94065.09;;;16.81;100.00
11077;BME280;5591;42.626;23.380;2023-08-08T01:27:16;94061.88;;;16.67;100.00
11077;BME280;5591;42.626;23.380;2023-08-08T01:29:43;94070.03;;;16.54;100.00
11077;BME280;5591;42.626;23.380;2023-08-08T01:32:10;94067.97;;;16.56;100.00
11077;BME280;5591;42.626;23.380;2023-08-08T01:34:37;94060.91;;;16.39;100.00
11077;BME280;5591;42.626;23.380;2023-08-08T01:37:09;94067.28;;;16.49;100.00
11077;BME280;5591;42.626;23.380;2023-08-08T01:39:38;94078.22;;;16.53;100.00
11077;BME280;5591;42.626;23.380;2023-08-08T01:42:07;94070.75;;;16.61;100.00
11077;BME280;5591;42.626;23.380;2023-08-08T01:44:35;94082.09;;;16.39;100.00
11077;BME280;5591;42.626;23.380;2023-08-08T01:47:05;94039.53;;;16.22;100.00
11077;BME280;5591;42.626;23.380;2023-08-08T01:49:33;94094.38;;;16.33;100.00
11077;BME280;5591;42.626;23.380;2023-08-08T01:52:00;94063.97;;;15.95;100.00
11077;BME280;5591;42.626;23.380;2023-08-08T01:54:27;94123.09;;;15.89;100.00
11077;BME280;5591;42.626;23.380;2023-08-08T01:56:53;94129.47;;;15.99;100.00
11077;BME280;5591;42.626;23.380;2023-08-08T01:59:22;94114.59;;;16.16;100.00
11077;BME280;5591;42.626;23.380;2023-08-08T02:01:48;94113.06;;;16.09;100.00
11077;BME280;5591;42.626;23.380;2023-08-08T02:04:15;94133.63;;;15.77;100.00
11077;BME280;5591;42.626;23.380;2023-08-08T02:06:42;94116.31;;;15.93;100.00
11077;BME280;5591;42.626;23.380;2023-08-08T02:09:09;94114.00;;;16.14;100.00
11077;BME280;5591;42.626;23.380;2023-08-08T02:11:36;94136.66;;;16.10;100.00
11077;BME280;5591;42.626;23.380;2023-08-08T02:14:03;94124.25;;;15.93;100.00
11077;BME280;5591;42.626;23.380;2023-08-08T02:16:31;94113.41;;;16.12;100.00
11077;BME280;5591;42.626;23.380;2023-08-08T02:18:58;94111.25;;;15.91;100.00
11077;BME280;5591;42.626;23.380;2023-08-08T02:21:25;94130.75;;;15.97;100.00
11077;BME280;5591;42.626;23.380;2023-08-08T02:23:51;94135.38;;;15.83;100.00
11077;BME280;5591;42.626;23.380;2023-08-08T02:26:18;94136.19;;;15.84;100.00
11077;BME280;5591;42.626;23.380;2023-08-08T02:28:45;94149.41;;;16.02;100.00
11077;BME280;5591;42.626;23.380;2023-08-08T02:31:12;94146.16;;;16.00;100.00
11077;BME280;5591;42.626;23.380;2023-08-08T02:33:47;94158.78;;;16.16;100.00
11077;BME280;5591;42.626;23.380;2023-08-08T02:36:14;94149.03;;;15.98;100.00
11077;BME280;5591;42.626;23.380;2023-08-08T02:38:41;94142.22;;;15.91;100.00
11077;BME280;5591;42.626;23.380;2023-08-08T02:41:08;94137.88;;;15.96;100.00
11077;BME280;5591;42.626;23.380;2023-08-08T02:43:35;94135.38;;;15.83;100.00
11077;BME280;5591;42.626;23.380;2023-08-08T02:46:01;94154.25;;;16.05;100.00
11077;BME280;5591;42.626;23.380;2023-08-08T02:48:29;94158.75;;;15.68;100.00
11077;BME280;5591;42.626;23.380;2023-08-08T02:50:57;94160.56;;;16.04;100.00
11077;BME280;5591;42.626;23.380;2023-08-08T02:53:24;94158.41;;;16.12;100.00
11077;BME280;5591;42.626;23.380;2023-08-08T02:55:51;94111.88;;;15.75;100.00
11077;BME280;5591;42.626;23.380;2023-08-08T02:58:18;94147.78;;;15.83;100.00
11077;BME280;5591;42.626;23.380;2023-08-08T03:00:45;94173.47;;;15.82;100.00
11077;BME280;5591;42.626;23.380;2023-08-08T03:03:12;94168.06;;;16.07;100.00
11077;BME280;5591;42.626;23.380;2023-08-08T03:05:38;94159.34;;;15.88;100.00
11077;BME280;5591;42.626;23.380;2023-08-08T03:08:07;94169.25;;;16.11;100.00
11077;BME280;5591;42.626;23.380;2023-08-08T03:10:34;94164.16;;;16.09;100.00
11077;BME280;5591;42.626;23.380;2023-08-08T03:12:59;94167.00;;;16.26;100.00
11077;BME280;5591;42.626;23.380;2023-08-08T03:15:26;94178.69;;;15.71;100.00
11077;BME280;5591;42.626;23.380;2023-08-08T03:17:53;94168.22;;;16.12;100.00
11077;BME280;5591;42.626;23.380;2023-08-08T03:20:21;94166.69;;;16.34;100.00
11077;BME280;5591;42.626;23.380;2023-08-08T03:22:48;94175.53;;;16.28;100.00
11077;BME280;5591;42.626;23.380;2023-08-08T03:25:16;94168.75;;;16.02;100.00
11077;BME280;5591;42.626;23.380;2023-08-08T03:27:43;94132.66;;;15.90;100.00
11077;BME280;5591;42.626;23.380;2023-08-08T03:30:11;94181.28;;;16.07;100.00
11077;BME280;5591;42.626;23.380;2023-08-08T03:32:38;94176.31;;;15.99;100.00
11077;BME280;5591;42.626;23.380;2023-08-08T03:35:05;94185.31;;;15.98;100.00
11077;BME280;5591;42.626;23.380;2023-08-08T03:37:34;94177.41;;;16.09;100.00
11077;BME280;5591;42.626;23.380;2023-08-08T03:40:01;94184.84;;;16.01;100.00
11077;BME280;5591;42.626;23.380;2023-08-08T03:42:29;94188.06;;;16.21;100.00
11077;BME280;5591;42.626;23.380;2023-08-08T03:44:56;94177.41;;;16.09;100.00
11077;BME280;5591;42.626;23.380;2023-08-08T03:47:23;94191.00;;;15.95;100.00
11077;BME280;5591;42.626;23.380;2023-08-08T03:49:50;94196.19;;;16.08;100.00
11077;BME280;5591;42.626;23.380;2023-08-08T03:52:20;94198.66;;;15.85;100.00
11077;BME280;5591;42.626;23.380;2023-08-08T03:54:47;94182.19;;;16.01;100.00
11077;BME280;5591;42.626;23.380;2023-08-08T03:57:14;94174.91;;;16.14;100.00
11077;BME280;5591;42.626;23.380;2023-08-08T03:59:42;94173.91;;;16.27;100.00
11077;BME280;5591;42.626;23.380;2023-08-08T04:02:09;94185.69;;;16.31;100.00
11077;BME280;5591;42.626;23.380;2023-08-08T04:04:36;94198.56;;;16.27;100.00
11077;BME280;5591;42.626;23.380;2023-08-08T04:07:04;94197.03;;;16.38;100.00
11077;BME280;5591;42.626;23.380;2023-08-08T04:09:30;94201.22;;;16.45;100.00
11077;BME280;5591;42.626;23.380;2023-08-08T04:11:58;94200.22;;;16.58;100.00
11077;BME280;5591;42.626;23.380;2023-08-08T04:14:24;94220.25;;;16.54;100.00
11077;BME280;5591;42.626;23.380;2023-08-08T04:16:52;94234.81;;;16.63;100.00
11077;BME280;5591;42.626;23.380;2023-08-08T04:19:19;94232.03;;;16.58;100.00
11077;BME280;5591;42.626;23.380;2023-08-08T04:21:46;94235.59;;;16.52;100.00
11077;BME280;5591;42.626;23.380;2023-08-08T04:24:13;94228.47;;;16.64;100.00
11077;BME280;5591;42.626;23.380;2023-08-08T04:26:40;94235.75;;;16.68;100.00
11077;BME280;5591;42.626;23.380;2023-08-08T04:29:06;94278.75;;;16.70;100.00
11077;BME280;5591;42.626;23.380;2023-08-08T04:31:33;94244.47;;;16.57;100.00
11077;BME280;5591;42.626;23.380;2023-08-08T04:34:01;94250.00;;;16.20;100.00
11077;BME280;5591;42.626;23.380;2023-08-08T04:36:29;94251.47;;;16.34;100.00
11077;BME280;5591;42.626;23.380;2023-08-08T04:38:56;94252.56;;;16.62;100.00
11077;BME280;5591;42.626;23.380;2023-08-08T04:41:23;94256.47;;;16.89;100.00
11077;BME280;5591;42.626;23.380;2023-08-08T04:43:49;94245.72;;;16.84;100.00
11077;BME280;5591;42.626;23.380;2023-08-08T04:46:16;94251.31;;;16.65;100.00
11077;BME280;5591;42.626;23.380;2023-08-08T04:48:43;94261.81;;;16.71;100.00
11077;BME280;5591;42.626;23.380;2023-08-08T04:51:11;94241.34;;;16.90;100.00
11077;BME280;5591;42.626;23.380;2023-08-08T04:53:38;94249.78;;;16.87;100.00
11077;BME280;5591;42.626;23.380;2023-08-08T04:56:05;94254.81;;;17.18;100.00
11077;BME280;5591;42.626;23.380;2023-08-08T04:58:31;94240.16;;;17.04;100.00
11077;BME280;5591;42.626;23.380;2023-08-08T05:00:58;94243.34;;;17.35;100.00
11077;BME280;5591;42.626;23.380;2023-08-08T05:03:25;94259.09;;;17.19;100.00
11077;BME280;5591;42.626;23.380;2023-08-08T05:05:52;94256.53;;;17.24;100.00
11077;BME280;5591;42.626;23.380;2023-08-08T05:08:20;94269.28;;;17.33;100.00
11077;BME280;5591;42.626;23.380;2023-08-08T05:10:47;94283.75;;;17.19;100.00
11077;BME280;5591;42.626;23.380;2023-08-08T05:13:14;94286.34;;;16.96;100.00
11077;BME280;5591;42.626;23.380;2023-08-08T05:15:40;94294.75;;;17.34;100.00
11077;BME280;5591;42.626;23.380;2023-08-08T05:18:07;94298.28;;;17.17;100.00
11077;BME280;5591;42.626;23.380;2023-08-08T05:20:34;94303.13;;;17.20;100.00
11077;BME280;5591;42.626;23.380;2023-08-08T05:23:01;94310.75;;;16.87;100.00
11077;BME280;5591;42.626;23.380;2023-08-08T05:25:29;94323.03;;;16.99;100.00
11077;BME280;5591;42.626;23.380;2023-08-08T05:27:56;94333.75;;;16.75;100.00
11077;BME280;5591;42.626;23.380;2023-08-08T05:30:22;94281.03;;;16.49;100.00
11077;BME280;5591;42.626;23.380;2023-08-08T05:32:49;94302.84;;;16.51;100.00
11077;BME280;5591;42.626;23.380;2023-08-08T05:35:16;94319.09;;;16.54;100.00
11077;BME280;5591;42.626;23.380;2023-08-08T05:37:43;94297.22;;;16.77;100.00
11077;BME280;5591;42.626;23.380;2023-08-08T05:40:10;94337.00;;;17.06;100.00
11077;BME280;5591;42.626;23.380;2023-08-08T05:42:39;94341.03;;;17.09;100.00
11077;BME280;5591;42.626;23.380;2023-08-08T05:45:07;94335.19;;;16.89;100.00
11077;BME280;5591;42.626;23.380;2023-08-08T05:47:34;94339.50;;;16.72;100.00
11077;BME280;5591;42.626;23.380;2023-08-08T05:50:00;94294.13;;;17.09;100.00
11077;BME280;5591;42.626;23.380;2023-08-08T05:52:27;94356.34;;;17.54;100.00
11077;BME280;5591;42.626;23.380;2023-08-08T05:54:54;94346.66;;;17.60;100.00
11077;BME280;5591;42.626;23.380;2023-08-08T05:57:21;94340.69;;;17.75;100.00
11077;BME280;5591;42.626;23.380;2023-08-08T05:59:49;94352.13;;;17.99;100.00
11077;BME280;5591;42.626;23.380;2023-08-08T06:02:16;94347.41;;;18.12;100.00
11077;BME280;5591;42.626;23.380;2023-08-08T06:04:43;94372.41;;;18.34;100.00
11077;BME280;5591;42.626;23.380;2023-08-08T06:07:10;94370.16;;;18.08;100.00
11077;BME280;5591;42.626;23.380;2023-08-08T06:09:37;94394.53;;;17.06;100.00
11077;BME280;5591;42.626;23.380;2023-08-08T06:12:04;94370.09;;;17.04;100.00
11077;BME280;5591;42.626;23.380;2023-08-08T06:14:31;94369.38;;;17.08;100.00
11077;BME280;5591;42.626;23.380;2023-08-08T06:17:01;94348.06;;;17.03;100.00
11077;BME280;5591;42.626;23.380;2023-08-08T06:19:28;94360.59;;;17.26;100.00
11077;BME280;5591;42.626;23.380;2023-08-08T06:21:55;94373.44;;;17.11;100.00
11077;BME280;5591;42.626;23.380;2023-08-08T06:24:22;94362.81;;;17.29;100.00
11077;BME280;5591;42.626;23.380;2023-08-08T06:26:48;94412.25;;;17.23;100.00
11077;BME280;5591;42.626;23.380;2023-08-08T06:29:15;94352.25;;;17.40;100.00
11077;BME280;5591;42.626;23.380;2023-08-08T06:31:42;94372.63;;;17.69;100.00
11077;BME280;5591;42.626;23.380;2023-08-08T06:34:10;94379.53;;;17.99;100.00
11077;BME280;5591;42.626;23.380;2023-08-08T06:36:37;94372.22;;;17.83;100.00
11077;BME280;5591;42.626;23.380;2023-08-08T06:39:04;94378.25;;;17.50;100.00
11077;BME280;5591;42.626;23.380;2023-08-08T06:41:31;94290.00;;;17.54;100.00
11077;BME280;5591;42.626;23.380;2023-08-08T06:43:58;94372.50;;;18.39;100.00
11077;BME280;5591;42.626;23.380;2023-08-08T06:46:25;94391.16;;;17.87;100.00
11077;BME280;5591;42.626;23.380;2023-08-08T06:48:51;94381.00;;;17.95;100.00
11077;BME280;5591;42.626;23.380;2023-08-08T06:51:23;94374.41;;;17.86;100.00
11077;BME280;5591;42.626;23.380;2023-08-08T06:53:50;94377.53;;;17.83;100.00
11077;BME280;5591;42.626;23.380;2023-08-08T06:56:17;94387.16;;;18.19;100.00
11077;BME280;5591;42.626;23.380;2023-08-08T06:58:44;94379.53;;;18.57;100.00
11077;BME280;5591;42.626;23.380;2023-08-08T07:01:11;94381.03;;;18.76;100.00
11077;BME280;5591;42.626;23.380;2023-08-08T07:03:38;94391.31;;;18.72;100.00
11077;BME280;5591;42.626;23.380;2023-08-08T07:06:05;94378.63;;;18.51;100.00
11077;BME280;5591;42.626;23.380;2023-08-08T07:08:33;94404.03;;;18.36;100.00
11077;BME280;5591;42.626;23.380;2023-08-08T07:11:00;94399.34;;;18.38;100.00
11077;BME280;5591;42.626;23.380;2023-08-08T07:13:27;94394.91;;;18.20;100.00
11077;BME280;5591;42.626;23.380;2023-08-08T07:15:54;94391.44;;;18.20;100.00
11077;BME280;5591;42.626;23.380;2023-08-08T07:18:21;94387.78;;;18.32;100.00
11077;BME280;5591;42.626;23.380;2023-08-08T07:20:47;94401.97;;;18.49;100.00
11077;BME280;5591;42.626;23.380;2023-08-08T07:23:15;94391.09;;;18.62;100.00
11077;BME280;5591;42.626;23.380;2023-08-08T07:25:43;94401.38;;;18.24;100.00
11077;BME280;5591;42.626;23.380;2023-08-08T07:28:10;94397.00;;;18.30;100.00
11077;BME280;5591;42.626;23.380;2023-08-08T07:30:37;94406.53;;;17.96;100.00
11077;BME280;5591;42.626;23.380;2023-08-08T07:33:04;94412.72;;;17.79;100.00
11077;BME280;5591;42.626;23.380;2023-08-08T07:35:32;94403.56;;;18.27;100.00
11077;BME280;5591;42.626;23.380;2023-08-08T07:37:59;94396.59;;;18.03;100.00
11077;BME280;5591;42.626;23.380;2023-08-08T07:40:26;94386.72;;;18.33;100.00
11077;BME280;5591;42.626;23.380;2023-08-08T07:42:54;94397.00;;;18.30;100.00
11077;BME280;5591;42.626;23.380;2023-08-08T07:45:21;94402.16;;;18.25;100.00
11077;BME280;5591;42.626;23.380;2023-08-08T07:47:47;94391.78;;;18.23;100.00
11077;BME280;5591;42.626;23.380;2023-08-08T07:50:14;94403.13;;;18.53;100.00
11077;BME280;5591;42.626;23.380;2023-08-08T07:52:41;94393.34;;;19.05;100.00
11077;BME280;5591;42.626;23.380;2023-08-08T07:55:08;94398.88;;;19.15;100.00
11077;BME280;5591;42.626;23.380;2023-08-08T07:57:35;94389.84;;;19.27;98.26
11077;BME280;5591;42.626;23.380;2023-08-08T08:00:04;94362.88;;;19.24;97.82
11077;BME280;5591;42.626;23.380;2023-08-08T08:02:37;94402.91;;;19.29;95.94
11077;BME280;5591;42.626;23.380;2023-08-08T08:05:05;94391.41;;;18.89;97.20
11077;BME280;5591;42.626;23.380;2023-08-08T08:07:33;94405.16;;;18.86;98.72
11077;BME280;5591;42.626;23.380;2023-08-08T08:10:01;94405.88;;;18.47;97.25
11077;BME280;5591;42.626;23.380;2023-08-08T08:12:29;94404.38;;;18.74;96.43
11077;BME280;5591;42.626;23.380;2023-08-08T08:14:56;94392.25;;;18.66;99.71
11077;BME280;5591;42.626;23.380;2023-08-08T08:17:25;94407.34;;;19.00;96.04
11077;BME280;5591;42.626;23.380;2023-08-08T08:19:53;94389.63;;;19.06;95.02
11077;BME280;5591;42.626;23.380;2023-08-08T08:22:20;94385.44;;;19.21;94.60
11077;BME280;5591;42.626;23.380;2023-08-08T08:24:47;94391.81;;;18.58;97.57
11077;BME280;5591;42.626;23.380;2023-08-08T08:27:14;94375.88;;;19.48;94.89
11077;BME280;5591;42.626;23.380;2023-08-08T08:29:40;94377.75;;;19.64;94.69
11077;BME280;5591;42.626;23.380;2023-08-08T08:32:07;94370.53;;;19.48;95.26
11077;BME280;5591;42.626;23.380;2023-08-08T08:34:35;94383.31;;;19.79;96.49
11077;BME280;5591;42.626;23.380;2023-08-08T08:37:03;94310.13;;;19.82;92.82
11077;BME280;5591;42.626;23.380;2023-08-08T08:39:30;94389.22;;;19.37;96.58
11077;BME280;5591;42.626;23.380;2023-08-08T08:41:59;94383.59;;;19.50;94.33
11077;BME280;5591;42.626;23.380;2023-08-08T08:44:27;94387.94;;;19.39;94.16
11077;BME280;5591;42.626;23.380;2023-08-08T08:46:58;94385.72;;;19.36;94.02
11077;BME280;5591;42.626;23.380;2023-08-08T08:49:27;94398.75;;;20.22;89.25
11077;BME280;5591;42.626;23.380;2023-08-08T08:51:58;94417.84;;;20.02;92.26
11077;BME280;5591;42.626;23.380;2023-08-08T08:54:27;94334.50;;;19.29;97.35
11077;BME280;5591;42.626;23.380;2023-08-08T08:56:53;94376.34;;;19.62;97.12
11077;BME280;5591;42.626;23.380;2023-08-08T08:59:21;94379.47;;;19.42;94.97
11077;BME280;5591;42.626;23.380;2023-08-08T09:01:48;94376.47;;;19.39;96.07
11077;BME280;5591;42.626;23.380;2023-08-08T09:04:15;94380.84;;;19.89;92.99
11077;BME280;5591;42.626;23.380;2023-08-08T09:06:45;94390.69;;;19.72;95.04
11077;BME280;5591;42.626;23.380;2023-08-08T09:09:14;94382.25;;;20.08;93.13
11077;BME280;5591;42.626;23.380;2023-08-08T09:11:42;94401.47;;;20.10;92.73
11077;BME280;5591;42.626;23.380;2023-08-08T09:14:15;94389.34;;;20.03;94.17
11077;BME280;5591;42.626;23.380;2023-08-08T09:16:42;94353.47;;;19.77;92.07
11077;BME280;5591;42.626;23.380;2023-08-08T09:19:09;94392.34;;;20.06;91.62
11077;BME280;5591;42.626;23.380;2023-08-08T09:21:36;94398.81;;;20.27;91.06
11077;BME280;5591;42.626;23.380;2023-08-08T09:24:03;94391.19;;;20.68;89.91
11077;BME280;5591;42.626;23.380;2023-08-08T09:26:32;94402.66;;;20.03;90.93
11077;BME280;5591;42.626;23.380;2023-08-08T09:28:59;94394.50;;;19.93;92.46
11077;BME280;5591;42.626;23.380;2023-08-08T09:31:27;94398.41;;;20.18;89.51
11077;BME280;5591;42.626;23.380;2023-08-08T09:33:53;94391.19;;;20.68;87.85
11077;BME280;5591;42.626;23.380;2023-08-08T09:36:22;94405.91;;;20.37;87.66
11077;BME280;5591;42.626;23.380;2023-08-08T09:38:49;94401.56;;;20.48;86.09
11077;BME280;5591;42.626;23.380;2023-08-08T09:41:16;94419.34;;;20.80;85.47
11077;BME280;5591;42.626;23.380;2023-08-08T09:43:44;94417.22;;;20.61;87.07
11077;BME280;5591;42.626;23.380;2023-08-08T09:46:11;94417.22;;;20.61;86.44
11077;BME280;5591;42.626;23.380;2023-08-08T09:48:40;94404.91;;;19.94;90.95
11077;BME280;5591;42.626;23.380;2023-08-08T09:51:07;94399.25;;;19.91;92.10
11077;BME280;5591;42.626;23.380;2023-08-08T09:53:34;94386.69;;;20.19;89.56
11077;BME280;5591;42.626;23.380;2023-08-08T09:56:03;94422.09;;;19.31;92.56
11077;BME280;5591;42.626;23.380;2023-08-08T09:58:30;94392.78;;;19.70;92.15
11077;BME280;5591;42.626;23.380;2023-08-08T10:00:58;94394.47;;;20.04;91.10
11077;BME280;5591;42.626;23.380;2023-08-08T10:03:25;94406.19;;;20.20;88.18
11077;BME280;5591;42.626;23.380;2023-08-08T10:05:52;94392.91;;;20.08;87.92
11077;BME280;5591;42.626;23.380;2023-08-08T10:08:20;94402.94;;;20.50;85.83
11077;BME280;5591;42.626;23.380;2023-08-08T10:10:48;94411.66;;;20.46;86.39
11077;BME280;5591;42.626;23.380;2023-08-08T10:13:19;94335.47;;;20.01;85.26
11077;BME280;5591;42.626;23.380;2023-08-08T10:15:46;94394.63;;;20.47;85.37
11077;BME280;5591;42.626;23.380;2023-08-08T10:18:15;94405.94;;;20.92;79.60
11077;BME280;5591;42.626;23.380;2023-08-08T10:20:42;94404.53;;;21.27;78.09
11077;BME280;5591;42.626;23.380;2023-08-08T10:23:10;94429.91;;;20.54;82.04
11077;BME280;5591;42.626;23.380;2023-08-08T10:25:36;94393.94;;;20.56;81.80
11077;BME280;5591;42.626;23.380;2023-08-08T10:28:05;94394.91;;;21.05;79.75
11077;BME280;5591;42.626;23.380;2023-08-08T10:30:42;94391.31;;;20.94;80.14
11077;BME280;5591;42.626;23.380;2023-08-08T10:33:17;94399.81;;;21.13;78.11
11077;BME280;5591;42.626;23.380;2023-08-08T10:35:54;94352.00;;;20.52;78.05
11077;BME280;5591;42.626;23.380;2023-08-08T10:38:21;94392.09;;;20.95;80.60
11077;BME280;5591;42.626;23.380;2023-08-08T10:40:55;94299.53;;;20.36;82.57
11077;BME280;5591;42.626;23.380;2023-08-08T10:43:26;94376.13;;;21.16;78.71
11077;BME280;5591;42.626;23.380;2023-08-08T10:45:57;94369.22;;;20.99;78.89
11077;BME280;5591;42.626;23.380;2023-08-08T10:48:26;94379.66;;;20.84;82.39
11077;BME280;5591;42.626;23.380;2023-08-08T10:50:54;94365.59;;;20.88;82.01
11077;BME280;5591;42.626;23.380;2023-08-08T10:53:23;94368.53;;;21.78;77.21
11077;BME280;5591;42.626;23.380;2023-08-08T10:55:57;94368.19;;;21.48;76.38
11077;BME280;5591;42.626;23.380;2023-08-08T10:58:35;94368.84;;;21.60;79.06
11077;BME280;5591;42.626;23.380;2023-08-08T11:01:03;94375.22;;;21.32;79.97
11077;BME280;5591;42.626;23.380;2023-08-08T11:03:35;94360.34;;;21.36;78.40
11077;BME280;5591;42.626;23.380;2023-08-08T11:06:02;94317.28;;;20.68;80.68
11077;BME280;5591;42.626;23.380;2023-08-08T11:08:30;94364.13;;;20.97;81.10
11077;BME280;5591;42.626;23.380;2023-08-08T11:10:57;94369.00;;;21.27;79.96
11077;BME280;5591;42.626;23.380;2023-08-08T11:13:24;94346.31;;;21.03;78.43
11077;BME280;5591;42.626;23.380;2023-08-08T11:15:52;94321.47;;;21.50;77.63
11077;BME280;5591;42.626;23.380;2023-08-08T11:18:19;94357.34;;;21.33;76.55
11077;BME280;5591;42.626;23.380;2023-08-08T11:20:48;94366.00;;;21.66;75.59
11077;BME280;5591;42.626;23.380;2023-08-08T11:23:15;94348.63;;;21.95;76.15
11077;BME280;5591;42.626;23.380;2023-08-08T11:25:45;94342.19;;;22.54;73.45
11077;BME280;5591;42.626;23.380;2023-08-08T11:28:12;94356.84;;;22.47;71.28
11077;BME280;5591;42.626;23.380;2023-08-08T11:30:41;94256.28;;;22.09;70.13
11077;BME280;5591;42.626;23.380;2023-08-08T11:33:08;94312.38;;;21.73;72.21
11077;BME280;5591;42.626;23.380;2023-08-08T11:35:36;94348.22;;;22.08;70.99
11077;BME280;5591;42.626;23.380;2023-08-08T11:38:05;94349.84;;;22.87;66.76
11077;BME280;5591;42.626;23.380;2023-08-08T11:40:32;94346.03;;;23.29;64.67
11077;BME280;5591;42.626;23.380;2023-08-08T11:42:59;94335.69;;;23.63;63.06
11077;BME280;5591;42.626;23.380;2023-08-08T11:45:26;94280.09;;;23.13;63.09
11077;BME280;5591;42.626;23.380;2023-08-08T11:47:55;94347.19;;;23.48;62.15
11077;BME280;5591;42.626;23.380;2023-08-08T11:50:23;94335.75;;;24.08;60.19
11077;BME280;5591;42.626;23.380;2023-08-08T11:52:52;94319.09;;;25.49;52.75
11077;BME280;5591;42.626;23.380;2023-08-08T11:55:21;94339.03;;;25.33;51.59
11077;BME280;5591;42.626;23.380;2023-08-08T11:57:54;94341.25;;;25.16;53.76
11077;BME280;5591;42.626;23.380;2023-08-08T12:00:26;94332.34;;;26.56;49.12
11077;BME280;5591;42.626;23.380;2023-08-08T12:02:53;94326.69;;;25.80;50.68
11077;BME280;5591;42.626;23.380;2023-08-08T12:05:21;94333.41;;;25.40;53.06
11077;BME280;5591;42.626;23.380;2023-08-08T12:07:48;94335.81;;;25.36;51.95
11077;BME280;5591;42.626;23.380;2023-08-08T12:10:16;94304.56;;;26.27;49.65
11077;BME280;5591;42.626;23.380;2023-08-08T12:12:45;94320.22;;;26.58;47.11
11077;BME280;5591;42.626;23.380;2023-08-08T12:15:13;94319.72;;;27.03;46.49
11077;BME280;5591;42.626;23.380;2023-08-08T12:17:40;94327.63;;;26.71;47.82
11077;BME280;5591;42.626;23.380;2023-08-08T12:20:09;94324.41;;;26.36;48.37
11077;BME280;5591;42.626;23.380;2023-08-08T12:22:36;94312.09;;;26.87;47.30
11077;BME280;5591;42.626;23.380;2023-08-08T12:25:04;94236.72;;;25.63;48.59
11077;BME280;5591;42.626;23.380;2023-08-08T12:27:31;94306.44;;;27.12;46.26
11077;BME280;5591;42.626;23.380;2023-08-08T12:29:59;94306.22;;;28.24;43.92
11077;BME280;5591;42.626;23.380;2023-08-08T12:32:26;94253.09;;;27.32;44.06
11077;BME280;5591;42.626;23.380;2023-08-08T12:34:54;94243.25;;;25.90;46.98
11077;BME280;5591;42.626;23.380;2023-08-08T12:37:22;94334.44;;;27.16;45.65
11077;BME280;5591;42.626;23.380;2023-08-08T12:39:49;94304.72;;;28.95;40.51
11077;BME280;5591;42.626;23.380;2023-08-08T12:42:16;94333.56;;;30.30;38.10
11077;BME280;5591;42.626;23.380;2023-08-08T12:44:44;94299.84;;;28.02;42.18
11077;BME280;5591;42.626;23.380;2023-08-08T12:47:13;94299.00;;;31.57;36.87
11077;BME280;5591;42.626;23.380;2023-08-08T12:49:40;94309.34;;;32.19;35.38
11077;BME280;5591;42.626;23.380;2023-08-08T12:52:07;94315.19;;;30.49;35.90
11077;BME280;5591;42.626;23.380;2023-08-08T12:54:34;94307.50;;;27.76;39.88
11077;BME280;5591;42.626;23.380;2023-08-08T12:57:01;94301.78;;;27.59;41.72